Current Conditions

Updated: 01-Mar-2017 09:43 AM  
Summary / Temperature Wind Rain






Feels like: 51°F

1-hour difference
3.4°F 3.4°F warmer than last hour.

24-hour difference
4.1°F4.1°F warmer than yesterday at this time.

  Today Yesterday
High: 50.8°F
9:42 AM
61.2°F
4:23 PM
Low: 34.9°F
6:43 AM
33.7°F
6:26 AM
Calm SW
0.0
Gust:  0.0 mph
0 Beaufort - Calm

Today: 3.5 - 9:15 AM
Month: 3.0 mph - Mar 1
Rain Today: 0.00 in
Current Rate (/hr): 0.000 in
Max Rate (/hr):
Rain Yesterday: 0.00 in
Storm Rain: 0.00 in
This Month: 0.00 in
Season Total: 10.20 in
Last Rain Event: 7 days ago
Humidity / Barometer Sun / Moon
Humidity: 72 Decreased 7.0% in the last hour.
Dew Point: 42.1°F Increased 0.9°F in the last hour.
Barometer: 30.434 inHg  
Baro Trend: Steady
Sunrise: 6:25 AM
Sunset: 5:50 PM
Moonrise: 8:28 AM
Moonset: 8:17 PM
Sky Conditions UV Index
Summary: Clear
Visibility: 10 miles
Clouds: None
KPTV - 8:56 AM PST
Current: 3.0  Moderate 
Wednesday: 4.1  Moderate 
Thursday: 4.3  Moderate 
Air Quality Fire Danger
 Good 
Ozone 21 ppb
PM 2.5 7 μg/m3
9:40 AM PST
Current: 0  Low 

Local Alerts Local Forecast
Local NWS Alerts
Today

Sunny

High 63
Tonight

Clear

Low 37
Thu

Sunny

High 64
Thu night

Clear

Low 39
Fri

Mostly
Sunny
High 68
Fri night

Mostly
Clear
Low 43
Sat

Partly
Cloudy
High 66

Local Radar Local Satellite Neighborhood Cam Sky Cam
Local Radar Local Satellite Neighborhood Cam Sky Cam


Nearby Personal Stations

Weather Underground PWS KCAPORTE11     Weather Underground PWS KCAPORTE8

Nearby Airport Stations

KPTV - Porterville, California, USA
Distance from station: SSW 4mi, 7km
Updated: Wed, 01-Mar-2017 8:56am PST
Clear
Clear
 Wind from SW
Wind: SW 5 mph , 7 km/h
Temperature: 48°F , 9°C
Wind Chill: 46°F , 8°C
Dew Point: 43°F , 6°C
Humidity: 82%
Barometer: 30.43 inHg , 1030.5 hPa
Clouds: Clear
Visibility: 10 miles , 16 km
2017/03/01 16:56 KPTV 011656Z AUTO 22004KT 10SM CLR 09/06 A3043 RMK AO2 SLP320 T00890056
KVIS - Visalia, California, USA
Distance from station: NW 27mi, 43km
Updated: Wed, 01-Mar-2017 8:56am PST
Clear
Clear
 Wind from SE
Wind: SE 6 mph , 9 km/h
Temperature: 46°F , 8°C
Wind Chill: 43°F , 6°C
Dew Point: 41°F , 5°C
Humidity: 82%
Barometer: 30.43 inHg , 1030.5 hPa
Clouds: Clear
Visibility: 10 miles , 16 km
2017/03/01 16:56 KVIS 011656Z AUTO 14005KT 10SM CLR 08/05 A3043 RMK AO2 SLP313 T00780050

Metar display script from Saratoga-Weather.org



Visitor Map